sensor_id;sensor_type;location;lat;lon;timestamp;pressure;altitude;pressure_sealevel;temperature;humidity
35918;BME280;22011;59.912;30.300;2022-09-09T00:00:11;102669.44;;;10.81;62.55
35918;BME280;22011;59.912;30.300;2022-09-09T00:02:41;102670.16;;;10.84;62.83
35918;BME280;22011;59.912;30.300;2022-09-09T00:05:17;102667.97;;;10.89;63.13
35918;BME280;22011;59.912;30.300;2022-09-09T00:07:49;102672.22;;;10.80;63.07
35918;BME280;22011;59.912;30.300;2022-09-09T00:10:25;102667.75;;;10.92;63.36
35918;BME280;22011;59.912;30.300;2022-09-09T00:12:59;102669.06;;;10.86;62.96
35918;BME280;22011;59.912;30.300;2022-09-09T00:15:32;102671.84;;;10.85;63.17
35918;BME280;22011;59.912;30.300;2022-09-09T00:18:11;102678.88;;;10.86;63.26
35918;BME280;22011;59.912;30.300;2022-09-09T00:20:45;102679.13;;;10.82;63.69
35918;BME280;22011;59.912;30.300;2022-09-09T00:23:23;102681.56;;;10.86;62.98
35918;BME280;22011;59.912;30.300;2022-09-09T00:25:59;102685.69;;;10.90;63.35
35918;BME280;22011;59.912;30.300;2022-09-09T00:28:33;102688.94;;;10.82;63.31
35918;BME280;22011;59.912;30.300;2022-09-09T00:31:11;102688.47;;;10.88;63.95
35918;BME280;22011;59.912;30.300;2022-09-09T00:33:40;102687.84;;;10.73;63.38
35918;BME280;22011;59.912;30.300;2022-09-09T00:36:13;102696.22;;;10.80;63.70
35918;BME280;22011;59.912;30.300;2022-09-09T00:38:45;102690.75;;;10.81;63.71
35918;BME280;22011;59.912;30.300;2022-09-09T00:41:22;102691.25;;;10.87;63.84
35918;BME280;22011;59.912;30.300;2022-09-09T00:43:56;102688.59;;;10.87;64.02
35918;BME280;22011;59.912;30.300;2022-09-09T00:49:32;102694.66;;;10.89;64.31
35918;BME280;22011;59.912;30.300;2022-09-09T00:52:15;102698.03;;;10.91;64.61
35918;BME280;22011;59.912;30.300;2022-09-09T00:54:52;102698.53;;;10.85;64.28
35918;BME280;22011;59.912;30.300;2022-09-09T00:57:28;102700.59;;;10.92;64.64
35918;BME280;22011;59.912;30.300;2022-09-09T01:00:00;102697.56;;;10.86;64.73
35918;BME280;22011;59.912;30.300;2022-09-09T01:02:38;102689.19;;;10.90;64.75
35918;BME280;22011;59.912;30.300;2022-09-09T01:05:12;102695.25;;;10.92;64.85
35918;BME280;22011;59.912;30.300;2022-09-09T01:07:44;102690.88;;;10.91;64.44
35918;BME280;22011;59.912;30.300;2022-09-09T01:10:21;102691.84;;;10.90;64.72
35918;BME280;22011;59.912;30.300;2022-09-09T01:12:58;102692.34;;;10.95;64.46
35918;BME280;22011;59.912;30.300;2022-09-09T01:15:31;102691.00;;;10.90;63.76
35918;BME280;22011;59.912;30.300;2022-09-09T01:18:03;102687.13;;;10.94;63.67
35918;BME280;22011;59.912;30.300;2022-09-09T01:20:39;102685.94;;;10.98;63.60
35918;BME280;22011;59.912;30.300;2022-09-09T01:23:20;102681.31;;;11.00;63.76
35918;BME280;22011;59.912;30.300;2022-09-09T01:26:35;102689.19;;;11.01;63.42
35918;BME280;22011;59.912;30.300;2022-09-09T01:29:11;102691.13;;;10.99;62.08
35918;BME280;22011;59.912;30.300;2022-09-09T01:31:51;102693.44;;;11.04;61.93
35918;BME280;22011;59.912;30.300;2022-09-09T01:34:19;102693.31;;;11.05;60.16
35918;BME280;22011;59.912;30.300;2022-09-09T01:36:52;102694.53;;;11.12;59.60
35918;BME280;22011;59.912;30.300;2022-09-09T01:39:22;102685.81;;;11.10;59.23
35918;BME280;22011;59.912;30.300;2022-09-09T01:42:00;102686.41;;;11.14;59.71
35918;BME280;22011;59.912;30.300;2022-09-09T01:44:30;102683.88;;;11.12;59.54
35918;BME280;22011;59.912;30.300;2022-09-09T01:46:58;102681.44;;;11.09;59.38
35918;BME280;22011;59.912;30.300;2022-09-09T01:49:25;102680.84;;;11.06;59.99
35918;BME280;22011;59.912;30.300;2022-09-09T01:51:55;102684.34;;;11.06;60.92
35918;BME280;22011;59.912;30.300;2022-09-09T01:54:30;102680.22;;;11.02;61.53
35918;BME280;22011;59.912;30.300;2022-09-09T01:57:11;102691.25;;;11.09;62.09
35918;BME280;22011;59.912;30.300;2022-09-09T01:59:51;102691.75;;;11.03;62.48
35918;BME280;22011;59.912;30.300;2022-09-09T02:02:24;102699.75;;;11.03;63.03
35918;BME280;22011;59.912;30.300;2022-09-09T02:05:22;102694.16;;;11.06;62.90
35918;BME280;22011;59.912;30.300;2022-09-09T02:08:01;102692.59;;;11.03;62.50
35918;BME280;22011;59.912;30.300;2022-09-09T02:10:42;102696.34;;;11.01;62.71
35918;BME280;22011;59.912;30.300;2022-09-09T02:13:29;102692.09;;;10.98;63.21
35918;BME280;22011;59.912;30.300;2022-09-09T02:16:03;102694.91;;;10.97;62.87
35918;BME280;22011;59.912;30.300;2022-09-09T02:18:38;102688.84;;;10.95;63.01
35918;BME280;22011;59.912;30.300;2022-09-09T02:21:09;102695.97;;;10.94;63.31
35918;BME280;22011;59.912;30.300;2022-09-09T02:23:41;102689.69;;;10.95;63.24
35918;BME280;22011;59.912;30.300;2022-09-09T02:26:12;102690.78;;;10.93;62.74
35918;BME280;22011;59.912;30.300;2022-09-09T02:28:49;102689.81;;;10.94;63.69
35918;BME280;22011;59.912;30.300;2022-09-09T02:31:20;102692.72;;;10.91;63.41
35918;BME280;22011;59.912;30.300;2022-09-09T02:33:54;102691.75;;;10.92;63.69
35918;BME280;22011;59.912;30.300;2022-09-09T02:36:25;102696.59;;;10.87;62.84
35918;BME280;22011;59.912;30.300;2022-09-09T02:38:56;102689.78;;;10.82;62.86
35918;BME280;22011;59.912;30.300;2022-09-09T02:41:31;102685.06;;;10.86;63.03
35918;BME280;22011;59.912;30.300;2022-09-09T02:44:01;102685.31;;;10.83;63.06
35918;BME280;22011;59.912;30.300;2022-09-09T02:46:38;102692.47;;;10.94;63.14
35918;BME280;22011;59.912;30.300;2022-09-09T02:49:16;102681.66;;;10.84;63.19
35918;BME280;22011;59.912;30.300;2022-09-09T02:51:52;102685.44;;;10.93;63.26
35918;BME280;22011;59.912;30.300;2022-09-09T02:54:27;102689.06;;;10.92;63.52
35918;BME280;22011;59.912;30.300;2022-09-09T02:57:02;102683.97;;;10.89;63.44
35918;BME280;22011;59.912;30.300;2022-09-09T02:59:38;102686.16;;;10.84;62.85
35918;BME280;22011;59.912;30.300;2022-09-09T03:02:06;102681.91;;;10.81;62.49
35918;BME280;22011;59.912;30.300;2022-09-09T03:04:36;102683.72;;;10.80;62.30
35918;BME280;22011;59.912;30.300;2022-09-09T03:07:04;102680.94;;;10.82;62.51
35918;BME280;22011;59.912;30.300;2022-09-09T03:09:32;102681.06;;;10.80;61.56
35918;BME280;22011;59.912;30.300;2022-09-09T03:11:59;102674.41;;;10.86;60.77
35918;BME280;22011;59.912;30.300;2022-09-09T03:14:30;102678.66;;;10.89;60.92
35918;BME280;22011;59.912;30.300;2022-09-09T03:16:59;102671.38;;;10.91;61.09
35918;BME280;22011;59.912;30.300;2022-09-09T03:19:32;102676.94;;;10.88;60.58
35918;BME280;22011;59.912;30.300;2022-09-09T03:22:02;102676.09;;;10.87;60.64
35918;BME280;22011;59.912;30.300;2022-09-09T03:24:31;102677.19;;;10.85;61.19
35918;BME280;22011;59.912;30.300;2022-09-09T03:26:59;102678.41;;;10.80;61.63
35918;BME280;22011;59.912;30.300;2022-09-09T03:29:27;102674.03;;;10.79;62.51
35918;BME280;22011;59.912;30.300;2022-09-09T03:31:59;102681.66;;;10.84;62.71
35918;BME280;22011;59.912;30.300;2022-09-09T03:34:27;102679.00;;;10.84;62.70
35918;BME280;22011;59.912;30.300;2022-09-09T03:36:56;102674.41;;;10.86;62.05
35918;BME280;22011;59.912;30.300;2022-09-09T03:39:25;102678.88;;;10.86;62.22
35918;BME280;22011;59.912;30.300;2022-09-09T03:41:52;102674.41;;;10.86;62.13
35918;BME280;22011;59.912;30.300;2022-09-09T03:44:21;102676.47;;;10.82;62.23
35918;BME280;22011;59.912;30.300;2022-09-09T03:46:48;102681.06;;;10.80;62.72
35918;BME280;22011;59.912;30.300;2022-09-09T03:49:17;102687.84;;;10.85;63.06
35918;BME280;22011;59.912;30.300;2022-09-09T03:51:47;102685.91;;;10.87;62.81
35918;BME280;22011;59.912;30.300;2022-09-09T03:54:14;102691.97;;;10.89;62.42
35918;BME280;22011;59.912;30.300;2022-09-09T03:56:42;102690.03;;;10.91;61.54
35918;BME280;22011;59.912;30.300;2022-09-09T03:59:12;102690.66;;;10.94;61.27
35918;BME280;22011;59.912;30.300;2022-09-09T04:01:41;102688.84;;;10.95;61.04
35918;BME280;22011;59.912;30.300;2022-09-09T04:04:09;102686.66;;;11.00;61.12
35918;BME280;22011;59.912;30.300;2022-09-09T04:06:39;102686.41;;;11.03;60.98
35918;BME280;22011;59.912;30.300;2022-09-09T04:09:07;102686.53;;;11.01;60.71
35918;BME280;22011;59.912;30.300;2022-09-09T04:11:34;102689.06;;;11.03;60.33
35918;BME280;22011;59.912;30.300;2022-09-09T04:14:03;102689.06;;;11.03;60.55
35918;BME280;22011;59.912;30.300;2022-09-09T04:16:32;102687.13;;;11.05;60.66
35918;BME280;22011;59.912;30.300;2022-09-09T04:19:00;102692.22;;;11.08;60.74
35918;BME280;22011;59.912;30.300;2022-09-09T04:21:30;102692.97;;;11.10;60.05
35918;BME280;22011;59.912;30.300;2022-09-09T04:24:01;102701.19;;;11.18;60.18
35918;BME280;22011;59.912;30.300;2022-09-09T04:26:28;102702.28;;;11.16;60.23
35918;BME280;22011;59.912;30.300;2022-09-09T04:28:56;102698.53;;;11.18;60.04
35918;BME280;22011;59.912;30.300;2022-09-09T04:31:24;102703.88;;;11.18;60.27
35918;BME280;22011;59.912;30.300;2022-09-09T04:33:55;102700.22;;;11.19;60.27
35918;BME280;22011;59.912;30.300;2022-09-09T04:36:23;102700.00;;;11.22;60.39
35918;BME280;22011;59.912;30.300;2022-09-09T04:38:55;102695.38;;;11.24;60.48
35918;BME280;22011;59.912;30.300;2022-09-09T04:41:24;102690.53;;;11.29;60.30
35918;BME280;22011;59.912;30.300;2022-09-09T04:43:53;102692.13;;;11.64;60.42
35918;BME280;22011;59.912;30.300;2022-09-09T04:46:21;102690.66;;;11.28;60.34
35918;BME280;22011;59.912;30.300;2022-09-09T04:48:50;102692.47;;;11.27;60.48
35918;BME280;22011;59.912;30.300;2022-09-09T04:51:19;102695.88;;;11.29;60.53
35918;BME280;22011;59.912;30.300;2022-09-09T04:53:48;102684.47;;;11.27;60.50
35918;BME280;22011;59.912;30.300;2022-09-09T04:56:17;102687.84;;;11.29;61.08
35918;BME280;22011;59.912;30.300;2022-09-09T04:58:53;102696.59;;;11.31;60.87
35918;BME280;22011;59.912;30.300;2022-09-09T05:01:23;102681.78;;;11.27;60.68
35918;BME280;22011;59.912;30.300;2022-09-09T05:03:53;102691.63;;;11.27;61.22
35918;BME280;22011;59.912;30.300;2022-09-09T05:06:22;102689.06;;;11.25;60.96
35918;BME280;22011;59.912;30.300;2022-09-09T05:08:55;102691.97;;;11.22;61.30
35918;BME280;22011;59.912;30.300;2022-09-09T05:11:27;102697.19;;;11.24;61.53
35918;BME280;22011;59.912;30.300;2022-09-09T05:14:02;102707.50;;;11.28;61.80
35918;BME280;22011;59.912;30.300;2022-09-09T05:16:31;102702.41;;;11.25;61.65
35918;BME280;22011;59.912;30.300;2022-09-09T05:18:59;102700.00;;;11.22;61.64
35918;BME280;22011;59.912;30.300;2022-09-09T05:21:37;102700.47;;;11.16;61.68
35918;BME280;22011;59.912;30.300;2022-09-09T05:24:06;102696.72;;;11.19;62.17
35918;BME280;22011;59.912;30.300;2022-09-09T05:26:34;102708.25;;;11.19;62.25
35918;BME280;22011;59.912;30.300;2022-09-09T05:29:04;102707.16;;;11.22;62.33
35918;BME280;22011;59.912;30.300;2022-09-09T05:31:32;102707.03;;;11.23;62.09
35918;BME280;22011;59.912;30.300;2022-09-09T05:34:03;102708.72;;;11.24;61.99
35918;BME280;22011;59.912;30.300;2022-09-09T05:36:30;102703.25;;;11.26;61.88
35918;BME280;22011;59.912;30.300;2022-09-09T05:38:58;102701.31;;;11.28;61.50
35918;BME280;22011;59.912;30.300;2022-09-09T05:41:28;102700.59;;;11.26;61.54
35918;BME280;22011;59.912;30.300;2022-09-09T05:43:57;102700.72;;;11.24;61.97
35918;BME280;22011;59.912;30.300;2022-09-09T05:46:28;102706.06;;;11.24;61.51
35918;BME280;22011;59.912;30.300;2022-09-09T05:48:56;102708.59;;;11.26;61.58
35918;BME280;22011;59.912;30.300;2022-09-09T05:51:30;102705.56;;;11.30;60.91
35918;BME280;22011;59.912;30.300;2022-09-09T05:54:02;102708.97;;;11.32;61.21
35918;BME280;22011;59.912;30.300;2022-09-09T05:56:33;102707.00;;;11.34;61.31
35918;BME280;22011;59.912;30.300;2022-09-09T05:59:01;102702.28;;;11.38;61.01
35918;BME280;22011;59.912;30.300;2022-09-09T06:01:32;102702.88;;;11.41;61.64
35918;BME280;22011;59.912;30.300;2022-09-09T06:04:03;102699.75;;;11.36;60.82
35918;BME280;22011;59.912;30.300;2022-09-09T06:06:33;102707.38;;;11.41;60.90
35918;BME280;22011;59.912;30.300;2022-09-09T06:09:05;102706.28;;;11.43;60.60
35918;BME280;22011;59.912;30.300;2022-09-09T06:11:36;102702.34;;;11.47;60.79
35918;BME280;22011;59.912;30.300;2022-09-09T06:14:05;102710.00;;;11.52;60.15
35918;BME280;22011;59.912;30.300;2022-09-09T06:16:35;102707.44;;;11.62;61.16
35918;BME280;22011;59.912;30.300;2022-09-09T06:19:05;102707.19;;;11.65;60.29
35918;BME280;22011;59.912;30.300;2022-09-09T06:21:36;102714.44;;;11.74;60.20
35918;BME280;22011;59.912;30.300;2022-09-09T06:24:06;102702.66;;;11.76;59.63
35918;BME280;22011;59.912;30.300;2022-09-09T06:26:36;102708.50;;;11.82;59.09
35918;BME280;22011;59.912;30.300;2022-09-09T06:29:07;102710.81;;;11.86;58.64
35918;BME280;22011;59.912;30.300;2022-09-09T06:31:37;102713.13;;;12.11;58.60
35918;BME280;22011;59.912;30.300;2022-09-09T06:34:14;102715.50;;;12.26;58.17
35918;BME280;22011;59.912;30.300;2022-09-09T06:36:46;102718.84;;;12.39;57.60
35918;BME280;22011;59.912;30.300;2022-09-09T06:39:13;102714.38;;;12.49;56.38
35918;BME280;22011;59.912;30.300;2022-09-09T06:41:42;102711.47;;;12.52;56.48
35918;BME280;22011;59.912;30.300;2022-09-09T06:44:25;102706.31;;;12.60;55.46
35918;BME280;22011;59.912;30.300;2022-09-09T06:46:54;102707.03;;;12.62;54.78
35918;BME280;22011;59.912;30.300;2022-09-09T06:49:22;102707.03;;;12.62;54.22
35918;BME280;22011;59.912;30.300;2022-09-09T06:51:50;102713.09;;;12.64;54.23
35918;BME280;22011;59.912;30.300;2022-09-09T06:54:18;102707.34;;;12.69;53.82
35918;BME280;22011;59.912;30.300;2022-09-09T06:56:48;102708.78;;;12.73;54.38
35918;BME280;22011;59.912;30.300;2022-09-09T06:59:21;102710.72;;;12.71;54.05
35918;BME280;22011;59.912;30.300;2022-09-09T07:01:51;102708.25;;;12.79;53.46
35918;BME280;22011;59.912;30.300;2022-09-09T07:04:22;102711.69;;;12.91;53.58
35918;BME280;22011;59.912;30.300;2022-09-09T07:06:51;102712.09;;;12.86;53.60
35918;BME280;22011;59.912;30.300;2022-09-09T07:09:23;102718.56;;;12.84;53.56
35918;BME280;22011;59.912;30.300;2022-09-09T07:11:52;102724.63;;;12.86;53.47
35918;BME280;22011;59.912;30.300;2022-09-09T07:14:22;102718.81;;;12.81;53.20
35918;BME280;22011;59.912;30.300;2022-09-09T07:16:59;102725.09;;;12.70;53.76
35918;BME280;22011;59.912;30.300;2022-09-09T07:19:33;102723.53;;;12.67;54.24
35918;BME280;22011;59.912;30.300;2022-09-09T07:22:03;102726.66;;;12.72;54.05
35918;BME280;22011;59.912;30.300;2022-09-09T07:24:33;102730.94;;;12.85;53.39
35918;BME280;22011;59.912;30.300;2022-09-09T07:27:00;102728.06;;;12.97;53.68
35918;BME280;22011;59.912;30.300;2022-09-09T07:29:29;102728.81;;;13.09;52.41
35918;BME280;22011;59.912;30.300;2022-09-09T07:31:57;102732.69;;;13.16;52.77
35918;BME280;22011;59.912;30.300;2022-09-09T07:34:31;102731.03;;;13.25;51.81
35918;BME280;22011;59.912;30.300;2022-09-09T07:37:00;102742.78;;;13.33;52.04
35918;BME280;22011;59.912;30.300;2022-09-09T07:39:28;102738.81;;;13.28;51.81
35918;BME280;22011;59.912;30.300;2022-09-09T07:41:56;102738.94;;;13.26;52.28
35918;BME280;22011;59.912;30.300;2022-09-09T07:44:25;102741.75;;;13.25;52.30
35918;BME280;22011;59.912;30.300;2022-09-09T07:46:59;102737.25;;;13.25;52.59
35918;BME280;22011;59.912;30.300;2022-09-09T07:49:33;102736.97;;;13.28;52.10
35918;BME280;22011;59.912;30.300;2022-09-09T07:52:05;102736.16;;;13.37;51.47
35918;BME280;22011;59.912;30.300;2022-09-09T07:54:33;102741.81;;;13.54;50.90
35918;BME280;22011;59.912;30.300;2022-09-09T07:57:04;102734.66;;;13.64;50.39
35918;BME280;22011;59.912;30.300;2022-09-09T07:59:35;102740.91;;;13.84;50.52
35918;BME280;22011;59.912;30.300;2022-09-09T08:02:03;102739.50;;;13.89;50.29
35918;BME280;22011;59.912;30.300;2022-09-09T08:04:33;102739.94;;;13.94;49.81
35918;BME280;22011;59.912;30.300;2022-09-09T08:07:02;102738.25;;;13.93;48.70
35918;BME280;22011;59.912;30.300;2022-09-09T08:09:36;102738.69;;;13.98;48.53
35918;BME280;22011;59.912;30.300;2022-09-09T08:12:10;102744.88;;;13.89;48.09
35918;BME280;22011;59.912;30.300;2022-09-09T08:14:39;102734.00;;;13.81;48.23
35918;BME280;22011;59.912;30.300;2022-09-09T08:17:07;102739.34;;;13.81;48.38
35918;BME280;22011;59.912;30.300;2022-09-09T08:19:34;102738.81;;;13.87;48.58
35918;BME280;22011;59.912;30.300;2022-09-09T08:22:05;102747.13;;;13.84;48.44
35918;BME280;22011;59.912;30.300;2022-09-09T08:24:36;102749.00;;;14.32;49.34
35918;BME280;22011;59.912;30.300;2022-09-09T08:27:04;102742.88;;;13.82;47.70
35918;BME280;22011;59.912;30.300;2022-09-09T08:29:31;102746.13;;;13.85;47.92
35918;BME280;22011;59.912;30.300;2022-09-09T08:31:59;102742.03;;;13.81;48.12
35918;BME280;22011;59.912;30.300;2022-09-09T08:34:28;102741.47;;;13.87;47.73
35918;BME280;22011;59.912;30.300;2022-09-09T08:36:59;102741.06;;;13.92;47.48
35918;BME280;22011;59.912;30.300;2022-09-09T08:39:36;102747.81;;;13.86;46.26
35918;BME280;22011;59.912;30.300;2022-09-09T08:45:15;102753.38;;;14.14;47.58
35918;BME280;22011;59.912;30.300;2022-09-09T08:47:54;102749.56;;;14.26;47.32
35918;BME280;22011;59.912;30.300;2022-09-09T08:50:30;102742.78;;;14.31;45.85
35918;BME280;22011;59.912;30.300;2022-09-09T08:53:14;102743.38;;;14.45;45.89
35918;BME280;22011;59.912;30.300;2022-09-09T08:55:47;102740.69;;;14.45;45.76
35918;BME280;22011;59.912;30.300;2022-09-09T08:58:20;102747.06;;;14.44;44.36
35918;BME280;22011;59.912;30.300;2022-09-09T09:01:14;102742.59;;;14.71;45.06
35918;BME280;22011;59.912;30.300;2022-09-09T09:03:54;102743.50;;;14.53;44.70
35918;BME280;22011;59.912;30.300;2022-09-09T09:06:35;102738.94;;;14.63;45.41
35918;BME280;22011;59.912;30.300;2022-09-09T09:09:12;102740.94;;;14.61;44.90
35918;BME280;22011;59.912;30.300;2022-09-09T09:11:48;102742.75;;;14.70;45.33
35918;BME280;22011;59.912;30.300;2022-09-09T09:14:19;102746.69;;;14.76;44.64
35918;BME280;22011;59.912;30.300;2022-09-09T09:16:53;102740.88;;;14.90;44.81
35918;BME280;22011;59.912;30.300;2022-09-09T09:19:21;102739.88;;;14.91;43.20
35918;BME280;22011;59.912;30.300;2022-09-09T09:21:57;102730.34;;;15.16;43.03
35918;BME280;22011;59.912;30.300;2022-09-09T09:24:34;102735.56;;;15.17;41.96
35918;BME280;22011;59.912;30.300;2022-09-09T09:27:12;102745.59;;;15.15;41.50
35918;BME280;22011;59.912;30.300;2022-09-09T09:29:45;102734.75;;;15.07;41.32
35918;BME280;22011;59.912;30.300;2022-09-09T09:32:18;102731.47;;;15.13;41.78
35918;BME280;22011;59.912;30.300;2022-09-09T09:34:49;102729.09;;;15.10;41.17
35918;BME280;22011;59.912;30.300;2022-09-09T09:37:26;102728.75;;;15.23;41.33
35918;BME280;22011;59.912;30.300;2022-09-09T09:40:07;102725.13;;;15.42;42.18
35918;BME280;22011;59.912;30.300;2022-09-09T09:42:37;102720.25;;;15.27;41.77
35918;BME280;22011;59.912;30.300;2022-09-09T09:45:16;102720.75;;;15.41;41.28
35918;BME280;22011;59.912;30.300;2022-09-09T09:47:45;102723.13;;;15.16;41.21
35918;BME280;22011;59.912;30.300;2022-09-09T09:50:18;102719.00;;;15.22;41.94
35918;BME280;22011;59.912;30.300;2022-09-09T09:52:54;102720.81;;;15.31;41.35
35918;BME280;22011;59.912;30.300;2022-09-09T09:55:24;102715.22;;;15.15;41.44
35918;BME280;22011;59.912;30.300;2022-09-09T09:58:01;102713.75;;;15.30;42.44
35918;BME280;22011;59.912;30.300;2022-09-09T10:00:29;102712.69;;;15.13;41.46
35918;BME280;22011;59.912;30.300;2022-09-09T10:03:19;102718.28;;;15.29;40.73
35918;BME280;22011;59.912;30.300;2022-09-09T10:05:49;102714.84;;;15.00;40.44
35918;BME280;22011;59.912;30.300;2022-09-09T10:08:17;102718.13;;;14.94;40.42
35918;BME280;22011;59.912;30.300;2022-09-09T10:10:56;102715.38;;;15.13;40.69
35918;BME280;22011;59.912;30.300;2022-09-09T10:13:33;102713.97;;;15.09;40.86
35918;BME280;22011;59.912;30.300;2022-09-09T10:16:21;102707.72;;;15.18;41.18
35918;BME280;22011;59.912;30.300;2022-09-09T10:19:04;102704.66;;;15.03;41.77
35918;BME280;22011;59.912;30.300;2022-09-09T10:21:51;102709.50;;;14.90;42.16
35918;BME280;22011;59.912;30.300;2022-09-09T10:24:39;102708.88;;;14.69;43.47
35918;BME280;22011;59.912;30.300;2022-09-09T10:27:15;102707.38;;;14.47;44.02
35918;BME280;22011;59.912;30.300;2022-09-09T10:29:55;102716.09;;;14.39;44.60
35918;BME280;22011;59.912;30.300;2022-09-09T10:32:36;102714.28;;;14.50;43.75
35918;BME280;22011;59.912;30.300;2022-09-09T10:35:10;102705.22;;;14.60;43.82
35918;BME280;22011;59.912;30.300;2022-09-09T10:37:53;102710.09;;;14.84;43.90
35918;BME280;22011;59.912;30.300;2022-09-09T10:40:31;102706.28;;;14.87;43.48
35918;BME280;22011;59.912;30.300;2022-09-09T10:43:23;102701.03;;;14.95;44.04
35918;BME280;22011;59.912;30.300;2022-09-09T10:46:01;102703.81;;;15.03;43.03
35918;BME280;22011;59.912;30.300;2022-09-09T10:48:41;102699.44;;;15.02;43.72
35918;BME280;22011;59.912;30.300;2022-09-09T10:51:21;102693.50;;;15.08;43.68
35918;BME280;22011;59.912;30.300;2022-09-09T10:53:57;102694.88;;;15.12;43.45
35918;BME280;22011;59.912;30.300;2022-09-09T10:56:30;102698.72;;;15.10;43.31
35918;BME280;22011;59.912;30.300;2022-09-09T10:59:01;102699.66;;;15.18;42.85
35918;BME280;22011;59.912;30.300;2022-09-09T11:01:37;102695.09;;;15.28;42.92
35918;BME280;22011;59.912;30.300;2022-09-09T11:04:13;102695.94;;;15.29;43.13
35918;BME280;22011;59.912;30.300;2022-09-09T11:06:47;102697.66;;;15.20;42.20
35918;BME280;22011;59.912;30.300;2022-09-09T11:09:17;102691.47;;;15.20;41.30
35918;BME280;22011;59.912;30.300;2022-09-09T11:11:51;102695.44;;;15.16;42.51
35918;BME280;22011;59.912;30.300;2022-09-09T11:14:25;102690.94;;;15.07;42.65
35918;BME280;22011;59.912;30.300;2022-09-09T11:16:58;102689.81;;;15.09;42.69
35918;BME280;22011;59.912;30.300;2022-09-09T11:19:31;102691.22;;;15.13;42.52
35918;BME280;22011;59.912;30.300;2022-09-09T11:22:03;102685.88;;;15.03;42.22
35918;BME280;22011;59.912;30.300;2022-09-09T11:24:37;102689.38;;;15.14;42.36
35918;BME280;22011;59.912;30.300;2022-09-09T11:27:10;102683.84;;;15.15;42.17
35918;BME280;22011;59.912;30.300;2022-09-09T11:30:15;102686.22;;;15.46;42.19
35918;BME280;22011;59.912;30.300;2022-09-09T11:33:06;102679.22;;;15.35;42.58
35918;BME280;22011;59.912;30.300;2022-09-09T11:35:43;102678.97;;;15.28;42.46
35918;BME280;22011;59.912;30.300;2022-09-09T11:38:21;102678.38;;;15.34;42.15
35918;BME280;22011;59.912;30.300;2022-09-09T11:40:57;102672.84;;;15.36;41.90
35918;BME280;22011;59.912;30.300;2022-09-09T11:43:28;102673.59;;;15.28;42.07
35918;BME280;22011;59.912;30.300;2022-09-09T11:46:00;102673.00;;;15.34;42.33
35918;BME280;22011;59.912;30.300;2022-09-09T11:48:33;102675.78;;;15.43;41.98
35918;BME280;22011;59.912;30.300;2022-09-09T11:51:06;102671.81;;;15.47;41.84
35918;BME280;22011;59.912;30.300;2022-09-09T11:53:35;102663.97;;;15.35;41.71
35918;BME280;22011;59.912;30.300;2022-09-09T11:56:22;102663.78;;;15.82;42.42
35918;BME280;22011;59.912;30.300;2022-09-09T11:58:55;102664.69;;;15.55;41.67
35918;BME280;22011;59.912;30.300;2022-09-09T12:01:29;102670.63;;;15.59;42.26
35918;BME280;22011;59.912;30.300;2022-09-09T12:04:26;102673.59;;;15.74;41.56
35918;BME280;22011;59.912;30.300;2022-09-09T12:06:58;102670.22;;;15.54;41.19
35918;BME280;22011;59.912;30.300;2022-09-09T12:09:33;102667.84;;;15.68;41.50
35918;BME280;22011;59.912;30.300;2022-09-09T12:12:07;102661.09;;;15.64;41.19
35918;BME280;22011;59.912;30.300;2022-09-09T12:14:57;102657.94;;;15.87;41.17
35918;BME280;22011;59.912;30.300;2022-09-09T12:17:26;102653.09;;;15.73;40.95
35918;BME280;22011;59.912;30.300;2022-09-09T12:20:06;102649.41;;;15.91;41.33
35918;BME280;22011;59.912;30.300;2022-09-09T12:22:44;102650.03;;;15.67;41.58
35918;BME280;22011;59.912;30.300;2022-09-09T12:25:21;102655.09;;;15.53;41.53
35918;BME280;22011;59.912;30.300;2022-09-09T12:28:01;102654.25;;;15.52;41.50
35918;BME280;22011;59.912;30.300;2022-09-09T12:30:35;102655.59;;;15.38;42.04
35918;BME280;22011;59.912;30.300;2022-09-09T12:33:11;102656.19;;;15.32;42.38
35918;BME280;22011;59.912;30.300;2022-09-09T12:35:42;102651.72;;;15.23;41.83
35918;BME280;22011;59.912;30.300;2022-09-09T12:38:15;102651.34;;;15.18;41.77
35918;BME280;22011;59.912;30.300;2022-09-09T12:40:54;102645.75;;;15.29;41.81
35918;BME280;22011;59.912;30.300;2022-09-09T12:43:23;102649.63;;;15.17;42.14
35918;BME280;22011;59.912;30.300;2022-09-09T12:45:54;102645.75;;;15.29;41.92
35918;BME280;22011;59.912;30.300;2022-09-09T12:48:29;102645.78;;;15.47;41.24
35918;BME280;22011;59.912;30.300;2022-09-09T12:50:59;102647.03;;;15.53;40.90
35918;BME280;22011;59.912;30.300;2022-09-09T12:53:30;102641.59;;;15.62;40.12
35918;BME280;22011;59.912;30.300;2022-09-09T12:56:01;102638.13;;;15.70;39.61
35918;BME280;22011;59.912;30.300;2022-09-09T12:58:31;102643.75;;;15.77;40.00
35918;BME280;22011;59.912;30.300;2022-09-09T13:01:02;102632.75;;;15.88;39.70
35918;BME280;22011;59.912;30.300;2022-09-09T13:03:31;102624.53;;;15.89;39.51
35918;BME280;22011;59.912;30.300;2022-09-09T13:06:12;102622.91;;;16.14;39.55
35918;BME280;22011;59.912;30.300;2022-09-09T13:08:40;102625.59;;;15.96;39.84
35918;BME280;22011;59.912;30.300;2022-09-09T13:11:12;102630.06;;;16.06;40.09
35918;BME280;22011;59.912;30.300;2022-09-09T13:13:42;102626.69;;;16.03;39.85
35918;BME280;22011;59.912;30.300;2022-09-09T13:16:20;102634.19;;;16.18;41.24